Nikolaevsk, Alaska
Current Conditions -  °F | °C
As of 6:53 PM on Wednesday 28 Jan 2015 (Local Time) from PAHO Reporting Station
Clear Clear  
Wind Chill: 11°   Ceiling: Unl
Heat Index: 21°   Visibility: 10mi
Dew Point: 12°   Wind: 9mph
Humidity: 68%   Direction: 50°NE
Pressure: 29.93"   Gusts: NA
Location:  59.8183°N, 151.638°W
Report Text: PAHO 290353Z 05008KT 10SM CLR M06/M11 A2993 RMK AO2 SLP135 T10611111 $
Loading
Personal Weather Stations






























Interactive Weather Map New forecast layout! Learn more

10-Day Weather Forecast

Advertisements
Track Severe Weather on mobile